createdAt,value
2018-11-11T00:00:16.723Z,100119.86
2018-11-11T00:00:47.821Z,100125.46
2018-11-11T00:01:18.954Z,100124.16
2018-11-11T00:01:50.098Z,100125.47
2018-11-11T00:02:21.221Z,100124.61
2018-11-11T00:02:52.331Z,100126.34
2018-11-11T00:03:23.437Z,100126.77
2018-11-11T00:03:54.584Z,100130.64
2018-11-11T00:04:25.743Z,100127.22
2018-11-11T00:04:56.862Z,100129.80
2018-11-11T00:05:27.966Z,100125.92
2018-11-11T00:05:59.117Z,100131.94
2018-11-11T00:06:30.244Z,100133.23
2018-11-11T00:07:01.372Z,100128.05
2018-11-11T00:07:32.486Z,100131.52
2018-11-11T00:08:03.619Z,100127.20
2018-11-11T00:08:34.740Z,100136.28
2018-11-11T00:09:05.882Z,100132.39
2018-11-11T00:09:37.004Z,100128.05
2018-11-11T00:10:08.166Z,100133.67
2018-11-11T00:10:39.296Z,100129.79
2018-11-11T00:11:10.665Z,100131.08
2018-11-11T00:11:41.842Z,100131.51
2018-11-11T00:12:12.951Z,100136.27
2018-11-11T00:12:44.051Z,100130.65
2018-11-11T00:13:15.176Z,100133.69
2018-11-11T00:13:46.299Z,100126.33
2018-11-11T00:14:17.426Z,100128.08
2018-11-11T00:14:48.540Z,100132.40
2018-11-11T00:15:19.697Z,100131.95
2018-11-11T00:15:50.830Z,100130.22
2018-11-11T00:16:21.935Z,100125.92
2018-11-11T00:16:53.062Z,100131.52
2018-11-11T00:17:24.192Z,100132.81
2018-11-11T00:17:55.290Z,100127.64
2018-11-11T00:18:26.419Z,100128.49
2018-11-11T00:18:57.523Z,100126.34
2018-11-11T00:19:28.629Z,100124.61
2018-11-11T00:19:59.752Z,100124.63
2018-11-11T00:20:30.911Z,100126.34
2018-11-11T00:21:02.040Z,100119.89
2018-11-11T00:21:33.260Z,100125.48
2018-11-11T00:22:04.868Z,100124.20
2018-11-11T00:22:36.043Z,100125.91
2018-11-11T00:23:07.176Z,100125.05
2018-11-11T00:23:38.298Z,100123.34
2018-11-11T00:24:09.416Z,100122.88
2018-11-11T00:24:40.543Z,100127.20
2018-11-11T00:25:11.696Z,100127.22
2018-11-11T00:25:42.852Z,100126.33
2018-11-11T00:26:13.988Z,100125.47
2018-11-11T00:26:45.103Z,100129.79
2018-11-11T00:27:16.249Z,100130.66
2018-11-11T00:27:47.396Z,100125.92
2018-11-11T00:28:18.531Z,100119.43
2018-11-11T00:28:49.658Z,100130.64
2018-11-11T00:29:20.752Z,100129.78
2018-11-11T00:29:51.890Z,100130.64
2018-11-11T00:30:23.040Z,100128.05
2018-11-11T00:30:54.161Z,100129.77
2018-11-11T00:31:25.296Z,100127.63
2018-11-11T00:31:56.440Z,100124.61
2018-11-11T00:32:27.551Z,100129.78
2018-11-11T00:32:58.716Z,100131.52
2018-11-11T00:33:29.867Z,100132.81
2018-11-11T00:34:00.985Z,100129.80
2018-11-11T00:34:32.092Z,100131.08
2018-11-11T00:35:03.241Z,100132.39
2018-11-11T00:35:34.457Z,100134.97
2018-11-11T00:36:05.631Z,100128.52
2018-11-11T00:36:36.779Z,100134.09
2018-11-11T00:37:07.899Z,100129.35
2018-11-11T00:37:39.015Z,100133.68
2018-11-11T00:38:10.128Z,100124.61
2018-11-11T00:38:41.247Z,100130.66
2018-11-11T00:39:12.347Z,100128.93
2018-11-11T00:39:43.578Z,100129.36
2018-11-11T00:40:14.639Z,100127.61
2018-11-11T00:40:45.771Z,100128.48
2018-11-11T00:41:16.909Z,100132.78
2018-11-11T00:41:48.012Z,100128.05
2018-11-11T00:42:19.126Z,100128.91
2018-11-11T00:42:50.277Z,100132.80
2018-11-11T00:43:21.383Z,100131.52
2018-11-11T00:43:52.487Z,100132.37
2018-11-11T00:44:23.667Z,100128.05
2018-11-11T00:44:54.815Z,100132.37
2018-11-11T00:45:25.975Z,100136.67
2018-11-11T00:45:57.098Z,100134.09
2018-11-11T00:46:28.299Z,100135.39
2018-11-11T00:46:59.446Z,100133.22
2018-11-11T00:47:30.588Z,100138.41
2018-11-11T00:48:01.723Z,100134.55
2018-11-11T00:48:32.821Z,100136.67
2018-11-11T00:49:04.057Z,100142.31
2018-11-11T00:49:35.194Z,100143.61
2018-11-11T00:50:06.301Z,100137.98
2018-11-11T00:50:37.439Z,100140.14
2018-11-11T00:51:08.551Z,100142.75
2018-11-11T00:51:39.682Z,100142.72
2018-11-11T00:52:10.801Z,100138.44
2018-11-11T00:52:41.899Z,100138.86
2018-11-11T00:53:13.019Z,100139.73
2018-11-11T00:53:44.123Z,100140.98
2018-11-11T00:54:15.258Z,100147.91
2018-11-11T00:54:46.367Z,100138.41
2018-11-11T00:55:17.478Z,100139.70
2018-11-11T00:55:48.610Z,100144.00
2018-11-11T00:56:19.780Z,100141.44
2018-11-11T00:56:50.897Z,100139.26
2018-11-11T00:57:22.078Z,100137.98
2018-11-11T00:57:53.197Z,100142.72
2018-11-11T00:58:24.319Z,100137.11
2018-11-11T00:58:55.455Z,100139.72
2018-11-11T00:59:26.590Z,100137.56
2018-11-11T00:59:57.756Z,100141.86
2018-11-11T01:00:28.908Z,100142.30
2018-11-11T01:01:00.058Z,100137.99
2018-11-11T01:01:31.159Z,100144.45
2018-11-11T01:02:02.293Z,100137.58
2018-11-11T01:02:33.420Z,100141.02
2018-11-11T01:03:04.608Z,100143.18
2018-11-11T01:03:35.739Z,100142.73
2018-11-11T01:04:06.869Z,100145.77
2018-11-11T01:04:37.984Z,100147.05
2018-11-11T01:05:09.115Z,100148.36
2018-11-11T01:05:40.238Z,100139.67
2018-11-11T01:06:11.367Z,100144.00
2018-11-11T01:06:42.498Z,100143.99
2018-11-11T01:07:13.610Z,100147.45
2018-11-11T01:07:44.750Z,100142.69
2018-11-11T01:08:15.916Z,100144.41
2018-11-11T01:08:47.007Z,100137.95
2018-11-11T01:09:18.139Z,100143.11
2018-11-11T01:09:49.269Z,100143.97
2018-11-11T01:10:20.439Z,100146.13
2018-11-11T01:10:51.563Z,100144.83
2018-11-11T01:11:22.695Z,100146.14
2018-11-11T01:11:53.803Z,100143.13
2018-11-11T01:12:25.011Z,100149.15
2018-11-11T01:12:56.118Z,100147.41
2018-11-11T01:13:27.247Z,100150.45
2018-11-11T01:13:58.365Z,100145.27
2018-11-11T01:14:29.481Z,100150.86
2018-11-11T01:15:00.604Z,100151.71
2018-11-11T01:15:31.756Z,100150.88
2018-11-11T01:16:02.866Z,100148.69
2018-11-11T01:16:33.967Z,100155.16
2018-11-11T01:17:05.077Z,100150.00
2018-11-11T01:17:36.228Z,100158.20
2018-11-11T01:18:07.361Z,100153.00
2018-11-11T01:18:38.486Z,100149.97
2018-11-11T01:19:09.606Z,100152.13
2018-11-11T01:19:40.745Z,100153.42
2018-11-11T01:20:11.853Z,100152.98
2018-11-11T01:20:42.970Z,100151.70
2018-11-11T01:21:14.058Z,100147.83
2018-11-11T01:21:45.167Z,100153.41
2018-11-11T01:22:16.307Z,100150.39
2018-11-11T01:22:47.446Z,100153.84
2018-11-11T01:23:18.623Z,100153.83
2018-11-11T01:23:49.802Z,100155.56
2018-11-11T01:24:20.904Z,100157.70
2018-11-11T01:24:52.048Z,100157.70
2018-11-11T01:25:23.168Z,100159.44
2018-11-11T01:25:54.339Z,100156.41
2018-11-11T01:26:25.438Z,100162.87
2018-11-11T01:26:56.568Z,100158.56
2018-11-11T01:27:27.712Z,100161.56
2018-11-11T01:27:58.854Z,100160.28
2018-11-11T01:28:30.052Z,100161.55
2018-11-11T01:29:01.168Z,100158.55
2018-11-11T01:29:32.276Z,100156.38
2018-11-11T01:30:03.433Z,100158.53
2018-11-11T01:30:34.566Z,100157.23
2018-11-11T01:31:05.704Z,100153.80
2018-11-11T01:31:36.867Z,100153.80
2018-11-11T01:32:08.017Z,100156.39
2018-11-11T01:32:39.147Z,100159.37
2018-11-11T01:33:10.303Z,100159.37
2018-11-11T01:33:41.491Z,100161.55
2018-11-11T01:34:12.645Z,100158.09
2018-11-11T01:34:43.761Z,100156.36
2018-11-11T01:35:14.867Z,100155.52
2018-11-11T01:35:45.991Z,100167.14
2018-11-11T01:36:17.118Z,100163.26
2018-11-11T01:36:48.263Z,100160.23
2018-11-11T01:37:19.378Z,100162.41
2018-11-11T01:37:50.478Z,100157.65
2018-11-11T01:38:21.599Z,100160.23
2018-11-11T01:38:52.735Z,100161.09
2018-11-11T01:39:23.966Z,100158.95
2018-11-11T01:39:55.077Z,100158.95
2018-11-11T01:40:26.245Z,100155.95
2018-11-11T01:40:57.381Z,100158.94
2018-11-11T01:41:28.504Z,100164.11
2018-11-11T01:41:59.607Z,99940.00
2018-11-11T01:42:30.729Z,100155.06
2018-11-11T01:43:01.847Z,100154.63
2018-11-11T01:43:32.964Z,100155.95
2018-11-11T01:44:04.092Z,100159.83
2018-11-11T01:44:35.267Z,100150.78
2018-11-11T01:45:06.474Z,100149.48
2018-11-11T01:45:37.601Z,100160.23
2018-11-11T01:46:08.718Z,100151.63
2018-11-11T01:46:39.821Z,100152.48
2018-11-11T01:47:10.966Z,100154.23
2018-11-11T01:47:42.095Z,100151.22
2018-11-11T01:48:13.224Z,100150.77
2018-11-11T01:48:44.384Z,100150.36
2018-11-11T01:49:15.506Z,100153.38
2018-11-11T01:49:46.667Z,100150.80
2018-11-11T01:50:59.787Z,100152.09
2018-11-11T01:51:30.943Z,100147.77
2018-11-11T01:52:02.093Z,100147.33
2018-11-11T01:52:33.271Z,100150.80
2018-11-11T01:53:04.384Z,100146.92
2018-11-11T01:53:35.505Z,100147.77
2018-11-11T01:54:06.662Z,100148.19
2018-11-11T01:54:37.836Z,100142.58
2018-11-11T01:55:08.998Z,100146.45
2018-11-11T01:56:16.330Z,100147.75
2018-11-11T01:56:47.434Z,100143.02
2018-11-11T01:57:19.707Z,100138.28
2018-11-11T01:57:50.959Z,100145.63
2018-11-11T01:58:22.084Z,100140.86
2018-11-11T01:58:53.209Z,100140.02
2018-11-11T01:59:24.336Z,100143.89
2018-11-11T01:59:55.508Z,100138.30
2018-11-11T02:00:26.668Z,100140.45
2018-11-11T02:00:57.841Z,100137.02
2018-11-11T02:01:28.995Z,100141.73
2018-11-11T02:02:00.175Z,100140.44
2018-11-11T02:02:31.278Z,100138.73
2018-11-11T02:03:02.429Z,100140.47
2018-11-11T02:03:33.547Z,100140.03
2018-11-11T02:04:04.670Z,100139.17
2018-11-11T02:04:35.842Z,100139.17
2018-11-11T02:05:06.966Z,100139.17
2018-11-11T02:05:38.122Z,100140.46
2018-11-11T02:06:09.247Z,100137.88
2018-11-11T02:06:40.409Z,100139.17
2018-11-11T02:07:11.602Z,100144.37
2018-11-11T02:07:42.832Z,100142.19
2018-11-11T02:08:13.967Z,100144.37
2018-11-11T02:08:45.146Z,100144.34
2018-11-11T02:09:16.254Z,100145.63
2018-11-11T02:09:47.490Z,100146.07
2018-11-11T02:10:18.543Z,100145.22
2018-11-11T02:10:49.711Z,100142.63
2018-11-11T02:11:20.834Z,100144.80
2018-11-11T02:11:51.971Z,100146.95
2018-11-11T02:12:23.101Z,100146.09
2018-11-11T02:12:54.203Z,100144.36
2018-11-11T02:13:25.389Z,100143.51
2018-11-11T02:13:56.549Z,100143.51
2018-11-11T02:14:27.673Z,100149.52
2018-11-11T02:14:58.792Z,100145.23
2018-11-11T02:15:29.932Z,100145.67
2018-11-11T02:16:01.052Z,100146.09
2018-11-11T02:16:32.207Z,100150.81
2018-11-11T02:17:03.312Z,100147.38
2018-11-11T02:17:34.443Z,100146.52
2018-11-11T02:18:05.587Z,100151.72
2018-11-11T02:18:36.742Z,100145.25
2018-11-11T02:19:07.856Z,100149.13
2018-11-11T02:19:40.565Z,100147.41
2018-11-11T02:20:13.526Z,100149.13
2018-11-11T02:20:44.690Z,100150.42
2018-11-11T02:21:15.893Z,100148.70
2018-11-11T02:21:47.069Z,100150.84
2018-11-11T02:22:18.164Z,100150.81
2018-11-11T02:22:49.292Z,100153.83
2018-11-11T02:23:20.436Z,100152.98
2018-11-11T02:23:51.569Z,100152.97
2018-11-11T02:24:22.727Z,100153.84
2018-11-11T02:24:53.848Z,100153.41
2018-11-11T02:25:25.032Z,100150.83
2018-11-11T02:25:56.123Z,100097.31
2018-11-11T02:26:27.230Z,100154.27
2018-11-11T02:26:58.340Z,100153.84
2018-11-11T02:27:29.496Z,100157.29
2018-11-11T02:28:00.660Z,100149.97
2018-11-11T02:28:31.790Z,100152.97
2018-11-11T02:29:02.910Z,100157.73
2018-11-11T02:29:34.008Z,100153.86
2018-11-11T02:30:05.114Z,100159.88
2018-11-11T02:30:36.278Z,100160.73
2018-11-11T02:31:07.433Z,100157.73
2018-11-11T02:31:38.652Z,100159.88
2018-11-11T02:32:09.839Z,100162.46
2018-11-11T02:32:40.975Z,100166.78
2018-11-11T02:33:12.110Z,100159.03
2018-11-11T02:33:43.229Z,100161.16
2018-11-11T02:34:14.361Z,100159.02
2018-11-11T02:34:45.493Z,100162.05
2018-11-11T02:35:16.610Z,100162.48
2018-11-11T02:35:47.735Z,100164.19
2018-11-11T02:36:18.890Z,100160.75
2018-11-11T02:36:50.032Z,100156.44
2018-11-11T02:37:21.180Z,100161.16
2018-11-11T02:37:52.323Z,100160.31
2018-11-11T02:38:23.439Z,100163.31
2018-11-11T02:38:54.570Z,100160.73
2018-11-11T02:39:25.778Z,100164.61
2018-11-11T02:39:56.918Z,100159.00
2018-11-11T02:40:28.026Z,100160.73
2018-11-11T02:40:59.140Z,100162.44
2018-11-11T02:41:30.248Z,100163.73
2018-11-11T02:42:01.414Z,100162.03
2018-11-11T02:42:32.547Z,100159.00
2018-11-11T02:43:03.701Z,100168.91
2018-11-11T02:43:34.873Z,100160.30
2018-11-11T02:44:05.974Z,100158.13
2018-11-11T02:44:37.131Z,100162.00
2018-11-11T02:45:08.251Z,100161.59
2018-11-11T02:45:39.374Z,100160.70
2018-11-11T02:46:10.507Z,100164.15
2018-11-11T02:46:41.667Z,100166.30
2018-11-11T02:47:12.844Z,100161.56
2018-11-11T02:47:43.981Z,100165.89
2018-11-11T02:48:15.131Z,100162.42
2018-11-11T02:48:46.281Z,100164.58
2018-11-11T02:49:17.422Z,100164.98
2018-11-11T02:49:48.555Z,100167.13
2018-11-11T02:50:19.701Z,100165.40
2018-11-11T02:50:50.810Z,100167.98
2018-11-11T02:51:21.928Z,100167.98
2018-11-11T02:51:53.050Z,100165.40
2018-11-11T02:52:24.187Z,100167.98
2018-11-11T02:52:55.366Z,100162.37
2018-11-11T02:53:26.486Z,100162.37
2018-11-11T02:53:57.621Z,100163.67
2018-11-11T02:54:28.749Z,100171.84
2018-11-11T02:55:00.007Z,100168.41
2018-11-11T02:55:31.144Z,100168.81
2018-11-11T02:56:02.305Z,100167.94
2018-11-11T02:56:33.411Z,100173.95
2018-11-11T02:57:04.536Z,100171.81
2018-11-11T02:57:35.677Z,100172.23
2018-11-11T02:58:06.858Z,100174.81
2018-11-11T02:58:37.976Z,100171.34
2018-11-11T02:59:09.090Z,100171.34
2018-11-11T02:59:40.227Z,100170.50
2018-11-11T03:00:11.386Z,100170.05
2018-11-11T03:00:42.504Z,100170.05
2018-11-11T03:01:13.605Z,100165.73
2018-11-11T03:01:44.733Z,100166.18
2018-11-11T03:02:15.854Z,100166.18
2018-11-11T03:02:46.976Z,100168.77
2018-11-11T03:03:18.137Z,100167.47
2018-11-11T03:03:49.333Z,100170.91
2018-11-11T03:04:20.483Z,100170.91
2018-11-11T03:04:51.618Z,100172.64
2018-11-11T03:05:22.764Z,100166.18
2018-11-11T03:05:53.889Z,100168.33
2018-11-11T03:06:25.013Z,100168.33
2018-11-11T03:06:56.157Z,100168.77
2018-11-11T03:07:27.291Z,100165.77
2018-11-11T03:07:58.448Z,100164.03
2018-11-11T03:08:29.616Z,100166.21
2018-11-11T03:09:00.742Z,100169.23
2018-11-11T03:09:31.893Z,100175.70
2018-11-11T03:10:03.004Z,100169.64
2018-11-11T03:10:34.136Z,100170.94
2018-11-11T03:11:05.239Z,100173.11
2018-11-11T03:11:36.360Z,100167.47
2018-11-11T03:12:07.491Z,100173.49
2018-11-11T03:12:38.622Z,100176.08
2018-11-11T03:13:09.750Z,100171.79
2018-11-11T03:13:40.910Z,100176.10
2018-11-11T03:14:12.007Z,100171.38
2018-11-11T03:14:43.119Z,100172.67
2018-11-11T03:15:14.251Z,100170.94
2018-11-11T03:15:45.407Z,100173.08
2018-11-11T03:16:16.547Z,100169.64
2018-11-11T03:16:47.679Z,100171.34
2018-11-11T03:17:18.817Z,100171.38
2018-11-11T03:17:49.917Z,100170.53
2018-11-11T03:18:21.055Z,100171.81
2018-11-11T03:18:52.230Z,100176.98
2018-11-11T03:19:23.397Z,100173.52
2018-11-11T03:19:54.497Z,100173.52
2018-11-11T03:20:25.646Z,100178.69
2018-11-11T03:20:56.824Z,100176.55
2018-11-11T03:21:27.903Z,100181.30
2018-11-11T03:21:59.088Z,100177.84
2018-11-11T03:22:30.216Z,100181.27
2018-11-11T03:23:01.343Z,100178.25
2018-11-11T03:23:32.451Z,100183.83
2018-11-11T03:24:03.594Z,100182.13
2018-11-11T03:24:34.761Z,100178.22
2018-11-11T03:25:05.865Z,100180.83
2018-11-11T03:25:37.003Z,100179.95
2018-11-11T03:26:08.118Z,100177.37
2018-11-11T03:26:39.242Z,100181.24
2018-11-11T03:27:10.358Z,100178.25
2018-11-11T03:27:41.521Z,100178.66
2018-11-11T03:28:12.674Z,100179.55
2018-11-11T03:28:43.762Z,100179.95
2018-11-11T03:29:14.877Z,100181.24
2018-11-11T03:29:45.971Z,100184.27
2018-11-11T03:30:17.113Z,100179.95
2018-11-11T03:30:48.231Z,100178.66
2018-11-11T03:31:19.379Z,100180.36
2018-11-11T03:31:50.552Z,100180.36
2018-11-11T03:32:21.731Z,100180.36
2018-11-11T03:32:52.867Z,100178.66
2018-11-11T03:33:23.994Z,100180.39
2018-11-11T03:33:55.139Z,100186.84
2018-11-11T03:34:26.278Z,100185.59
2018-11-11T03:34:57.442Z,100185.18
2018-11-11T03:35:28.592Z,100183.03
2018-11-11T03:35:59.695Z,100185.18
2018-11-11T03:36:30.812Z,100188.17
2018-11-11T03:37:01.926Z,100183.89
2018-11-11T03:37:33.081Z,100188.17
2018-11-11T03:38:05.129Z,100182.56
2018-11-11T03:38:36.325Z,100183.86
2018-11-11T03:39:07.427Z,100181.71
2018-11-11T03:39:38.563Z,100183.88
2018-11-11T03:40:09.708Z,100183.88
2018-11-11T03:40:40.833Z,100180.42
2018-11-11T03:41:11.972Z,100179.98
2018-11-11T03:41:43.097Z,100180.86
2018-11-11T03:42:14.206Z,100176.98
2018-11-11T03:42:45.344Z,100182.16
2018-11-11T03:43:16.485Z,100179.56
2018-11-11T03:43:47.656Z,100182.59
2018-11-11T03:44:18.793Z,100178.72
2018-11-11T03:44:49.928Z,100178.72
2018-11-11T03:45:21.033Z,100173.11
2018-11-11T03:45:52.164Z,100182.56
2018-11-11T03:46:23.277Z,100179.13
2018-11-11T03:46:54.389Z,100178.25
2018-11-11T03:47:25.534Z,100179.54
2018-11-11T03:47:56.704Z,100175.70
2018-11-11T03:48:27.841Z,100173.52
2018-11-11T03:48:58.958Z,100177.83
2018-11-11T03:49:30.087Z,100183.03
2018-11-11T03:50:01.207Z,100177.42
2018-11-11T03:50:32.383Z,100173.95
2018-11-11T03:51:03.506Z,100178.72
2018-11-11T03:51:34.614Z,100173.52
2018-11-11T03:52:05.742Z,100176.52
2018-11-11T03:52:36.878Z,100177.37
2018-11-11T03:53:08.006Z,100178.66
2018-11-11T03:53:39.173Z,100178.66
2018-11-11T03:54:11.342Z,100172.61
2018-11-11T03:54:42.453Z,100172.20
2018-11-11T03:55:16.684Z,100175.22
2018-11-11T03:55:47.791Z,100172.20
2018-11-11T03:56:18.893Z,100174.78
2018-11-11T03:56:49.993Z,100172.64
2018-11-11T03:57:21.112Z,100171.76
2018-11-11T03:57:52.228Z,100171.79
2018-11-11T03:58:23.384Z,100164.45
2018-11-11T03:58:54.535Z,100170.91
2018-11-11T03:59:25.672Z,100169.65
2018-11-11T03:59:56.783Z,100176.10
2018-11-11T04:00:27.926Z,100172.64
2018-11-11T04:00:59.073Z,100170.94
2018-11-11T04:01:30.179Z,100176.95
2018-11-11T04:02:01.343Z,100180.39
2018-11-11T04:02:32.464Z,100175.19
2018-11-11T04:03:03.585Z,100172.61
2018-11-11T04:03:34.718Z,100174.75
2018-11-11T04:04:05.863Z,100172.61
2018-11-11T04:04:36.967Z,100172.58
2018-11-11T04:05:08.105Z,100176.90
2018-11-11T04:05:39.254Z,100176.45
2018-11-11T04:06:10.406Z,100178.59
2018-11-11T04:06:41.546Z,100182.47
2018-11-11T04:07:12.651Z,100181.62
2018-11-11T04:07:43.766Z,100173.88
2018-11-11T04:08:15.656Z,100179.89
2018-11-11T04:08:46.827Z,100179.89
2018-11-11T04:09:17.954Z,100179.45
2018-11-11T04:09:51.193Z,100181.18
2018-11-11T04:10:22.333Z,100183.77
2018-11-11T04:10:53.506Z,100184.17
2018-11-11T04:11:24.602Z,100181.14
2018-11-11T04:11:55.753Z,100185.43
2018-11-11T04:12:26.876Z,100189.71
2018-11-11T04:12:57.988Z,100188.41
2018-11-11T04:13:29.127Z,100190.11
2018-11-11T04:14:00.240Z,100188.38
2018-11-11T04:14:31.413Z,100189.67
2018-11-11T04:15:02.570Z,100191.80
2018-11-11T04:15:33.713Z,100189.23
2018-11-11T04:16:04.837Z,100190.07
2018-11-11T04:16:35.949Z,100196.94
2018-11-11T04:17:07.041Z,100194.80
2018-11-11T04:17:38.182Z,100197.38
2018-11-11T04:18:09.322Z,100202.98
2018-11-11T04:18:40.435Z,100193.09
2018-11-11T04:19:11.572Z,100193.50
2018-11-11T04:19:42.723Z,100194.39
2018-11-11T04:20:13.850Z,100190.52
2018-11-11T04:20:44.995Z,100192.69
2018-11-11T04:21:16.099Z,100195.28
2018-11-11T04:21:47.231Z,100193.14
2018-11-11T04:22:18.356Z,100198.30
2018-11-11T04:22:49.488Z,100191.88
2018-11-11T04:23:20.595Z,100192.33
2018-11-11T04:23:51.730Z,100194.91
2018-11-11T04:24:22.836Z,100195.76
2018-11-11T04:24:54.029Z,100191.44
2018-11-11T04:25:25.195Z,100188.01
2018-11-11T04:25:56.335Z,100191.44
2018-11-11T04:26:27.475Z,100197.05
2018-11-11T04:26:58.609Z,100195.76
2018-11-11T04:27:29.740Z,100195.31
2018-11-11T04:28:00.899Z,100201.77
2018-11-11T04:28:32.035Z,100197.02
2018-11-11T04:29:03.157Z,100198.27
2018-11-11T04:29:34.284Z,100198.27
2018-11-11T04:30:05.458Z,100196.97
2018-11-11T04:30:36.596Z,100198.70
2018-11-11T04:31:07.709Z,100197.41
2018-11-11T04:31:38.814Z,100200.00
2018-11-11T04:32:09.923Z,100196.53
2018-11-11T04:32:41.041Z,100200.84
2018-11-11T04:33:12.150Z,100196.97
2018-11-11T04:33:43.252Z,100195.27
2018-11-11T04:34:14.426Z,100195.72
2018-11-11T04:34:45.547Z,100197.02
2018-11-11T04:35:16.707Z,100194.91
2018-11-11T04:35:47.824Z,100191.03
2018-11-11T04:36:18.973Z,100192.33
2018-11-11T04:36:50.102Z,100188.02
2018-11-11T04:37:21.224Z,100192.77
2018-11-11T04:37:52.340Z,100197.53
2018-11-11T04:38:23.467Z,100191.52
2018-11-11T04:38:54.612Z,100193.21
2018-11-11T04:39:27.531Z,100195.80
2018-11-11T04:39:58.650Z,100187.20
2018-11-11T04:40:29.787Z,100192.84
2018-11-11T04:41:01.023Z,100189.41
2018-11-11T04:41:32.150Z,100195.39
2018-11-11T04:42:03.271Z,100191.95
2018-11-11T04:42:34.384Z,100188.48
2018-11-11T04:43:05.515Z,100192.77
2018-11-11T04:43:36.683Z,100193.17
2018-11-11T04:44:07.830Z,100194.91
2018-11-11T04:44:38.982Z,100196.61
2018-11-11T04:45:10.114Z,100191.44
2018-11-11T04:45:41.265Z,100198.30
2018-11-11T04:46:12.500Z,100193.98
2018-11-11T04:46:43.623Z,100194.83
2018-11-11T04:47:14.780Z,100198.70
2018-11-11T04:47:45.884Z,100200.00
2018-11-11T04:48:17.020Z,100202.13
2018-11-11T04:48:48.125Z,100203.42
2018-11-11T04:49:19.256Z,100207.70
2018-11-11T04:49:50.350Z,100209.40
2018-11-11T04:50:21.490Z,100205.52
2018-11-11T04:50:52.610Z,100203.37
2018-11-11T04:51:23.764Z,100208.06
2018-11-11T04:51:54.934Z,100209.36
2018-11-11T04:52:26.191Z,100206.77
2018-11-11T04:52:57.350Z,100208.95
2018-11-11T04:53:28.526Z,100201.20
2018-11-11T04:53:59.631Z,100203.78
2018-11-11T04:54:30.776Z,100205.52
2018-11-11T04:55:01.924Z,100208.50
2018-11-11T04:55:33.045Z,100210.24
2018-11-11T04:56:04.159Z,100209.80
2018-11-11T04:56:35.272Z,100206.37
2018-11-11T04:57:06.386Z,100202.09
2018-11-11T04:57:37.565Z,100209.84
2018-11-11T04:58:08.718Z,100201.25
2018-11-11T04:58:39.870Z,100206.41
2018-11-11T04:59:10.984Z,100211.13
2018-11-11T04:59:42.094Z,100210.25
2018-11-11T05:00:13.198Z,100208.10
2018-11-11T05:00:44.305Z,100207.66
2018-11-11T05:01:15.491Z,100214.52
2018-11-11T05:01:46.599Z,100215.37
2018-11-11T05:02:17.741Z,100211.49
2018-11-11T05:02:48.869Z,100215.80
2018-11-11T05:03:20.015Z,100217.09
2018-11-11T05:03:51.172Z,100214.91
2018-11-11T05:04:22.344Z,100211.89
2018-11-11T05:04:53.485Z,100214.47
2018-11-11T05:05:24.625Z,100220.48
2018-11-11T05:05:55.738Z,100217.48
2018-11-11T05:06:26.884Z,100221.33
2018-11-11T05:06:58.046Z,100214.88
2018-11-11T05:07:29.186Z,100214.02
2018-11-11T05:08:00.299Z,100213.58
2018-11-11T05:08:36.212Z,100216.61
2018-11-11T05:09:07.482Z,100213.62
2018-11-11T05:09:38.581Z,100213.63
2018-11-11T05:10:09.697Z,100219.63
2018-11-11T05:10:40.833Z,100220.96
2018-11-11T05:11:11.938Z,100220.97
2018-11-11T05:11:43.066Z,100223.11
2018-11-11T05:12:14.185Z,100222.70
2018-11-11T05:12:45.349Z,100223.98
2018-11-11T05:13:16.501Z,100225.69
2018-11-11T05:13:47.640Z,100223.55
2018-11-11T05:14:18.784Z,100225.69
2018-11-11T05:14:49.909Z,100224.44
2018-11-11T05:15:21.060Z,100220.56
2018-11-11T05:15:52.192Z,100229.61
2018-11-11T05:16:23.338Z,100221.86
2018-11-11T05:16:54.461Z,100226.13
2018-11-11T05:17:25.604Z,100224.84
2018-11-11T05:17:56.719Z,100221.81
2018-11-11T05:18:27.852Z,100222.66
2018-11-11T05:18:58.987Z,100229.96
2018-11-11T05:19:30.112Z,100225.23
2018-11-11T05:20:01.218Z,100221.32
2018-11-11T05:20:32.375Z,100227.77
2018-11-11T05:21:03.507Z,100223.89
2018-11-11T05:21:34.650Z,100232.92
2018-11-11T05:22:05.834Z,100232.89
2018-11-11T05:22:36.957Z,100232.48
2018-11-11T05:23:08.097Z,100235.52
2018-11-11T05:23:39.990Z,100235.97
2018-11-11T05:24:11.119Z,100234.72
2018-11-11T05:24:42.255Z,100239.44
2018-11-11T05:25:13.391Z,100238.59
2018-11-11T05:25:44.517Z,100245.05
2018-11-11T05:26:15.661Z,100241.17
2018-11-11T05:26:46.805Z,100245.94
2018-11-11T05:27:17.967Z,100243.40
2018-11-11T05:27:49.102Z,100247.68
2018-11-11T05:28:20.277Z,100245.14
2018-11-11T05:28:51.402Z,100244.74
2018-11-11T05:29:22.540Z,100246.03
2018-11-11T05:29:53.663Z,100249.06
2018-11-11T05:30:24.859Z,100247.77
2018-11-11T05:30:56.537Z,100249.10
2018-11-11T05:31:27.679Z,100244.78
2018-11-11T05:31:58.815Z,100247.81
2018-11-11T05:32:29.963Z,100252.98
2018-11-11T05:33:01.144Z,100255.56
2018-11-11T05:33:32.313Z,100254.27
2018-11-11T05:34:03.417Z,100256.89
2018-11-11T05:34:34.544Z,100254.75
2018-11-11T05:35:05.735Z,100257.78
2018-11-11T05:35:36.851Z,100257.34
2018-11-11T05:36:07.981Z,100256.94
2018-11-11T05:36:39.089Z,100259.08
2018-11-11T05:37:10.195Z,100260.41
2018-11-11T05:37:41.646Z,100259.97
2018-11-11T05:38:12.771Z,100262.59
2018-11-11T05:38:43.933Z,100260.89
2018-11-11T05:39:15.036Z,100266.06
2018-11-11T05:39:46.160Z,100263.04
2018-11-11T05:40:17.322Z,100261.34
2018-11-11T05:40:48.441Z,100263.48
2018-11-11T05:41:19.570Z,100261.78
2018-11-11T05:41:50.679Z,100261.37
2018-11-11T05:42:21.822Z,100266.98
2018-11-11T05:42:53.042Z,100267.84
2018-11-11T05:43:24.139Z,100263.11
2018-11-11T05:43:55.247Z,100268.28
2018-11-11T05:44:26.395Z,100262.67
2018-11-11T05:44:57.519Z,100262.26
2018-11-11T05:45:28.656Z,100260.53
2018-11-11T05:45:59.786Z,100263.99
2018-11-11T05:46:30.886Z,100263.11
2018-11-11T05:47:02.003Z,100265.73
2018-11-11T05:47:33.103Z,100257.53
2018-11-11T05:48:04.265Z,100261.85
2018-11-11T05:48:35.358Z,100264.47
2018-11-11T05:49:06.492Z,100265.32
2018-11-11T05:49:37.687Z,100267.09
2018-11-11T05:50:08.796Z,100267.50
2018-11-11T05:50:39.949Z,100268.83
2018-11-11T05:51:11.069Z,100270.97
2018-11-11T05:51:42.199Z,100271.00
2018-11-11T05:52:13.314Z,100273.14
2018-11-11T05:52:44.487Z,100270.11
2018-11-11T05:53:15.619Z,100277.02
2018-11-11T05:53:46.732Z,100275.28
2018-11-11T05:54:17.836Z,100276.17
2018-11-11T05:54:48.946Z,100278.75
2018-11-11T05:55:20.108Z,100282.22
2018-11-11T05:55:51.239Z,100286.09
2018-11-11T05:56:22.399Z,100278.78
2018-11-11T05:56:53.531Z,100272.77